createdAt,value
2019-04-20T00:00:09.483Z,96117.47
2019-04-20T00:02:39.965Z,96120.84
2019-04-20T00:05:09.953Z,96118.27
2019-04-20T00:07:39.948Z,96116.75
2019-04-20T00:10:15.540Z,96113.49
2019-04-20T00:12:53.624Z,96113.59
2019-04-20T00:15:13.380Z,96108.80
2019-04-20T00:17:48.618Z,96107.49
2019-04-20T00:20:20.780Z,96111.69
2019-04-20T00:22:55.483Z,96109.61
2019-04-20T00:26:12.411Z,96103.22
2019-04-20T00:28:50.795Z,96101.93
2019-04-20T00:31:19.018Z,96098.74
2019-04-20T00:33:48.193Z,96094.05
2019-04-20T00:36:08.869Z,96090.72
2019-04-20T00:38:45.625Z,96092.80
2019-04-20T00:41:15.107Z,96091.93
2019-04-20T00:43:44.141Z,96094.34
2019-04-20T00:46:21.894Z,96090.76
2019-04-20T00:48:53.650Z,96087.84
2019-04-20T00:51:35.100Z,96089.52
2019-04-20T00:53:55.229Z,96090.97
2019-04-20T00:56:22.506Z,96089.33
2019-04-20T00:59:09.283Z,96093.56
2019-04-20T01:01:43.592Z,96092.04
2019-04-20T01:04:16.350Z,96093.02
2019-04-20T01:07:15.208Z,96093.08
2019-04-20T01:09:51.981Z,96092.03
2019-04-20T01:12:26.053Z,96090.13
2019-04-20T01:15:00.721Z,96090.63
2019-04-20T01:17:25.221Z,96089.13
2019-04-20T01:19:55.166Z,96091.05
2019-04-20T01:22:28.372Z,96091.86
2019-04-20T01:25:06.899Z,96093.05
2019-04-20T01:27:42.323Z,96094.06
2019-04-20T01:30:10.541Z,96091.57
2019-04-20T01:32:50.659Z,96088.41
2019-04-20T01:35:19.665Z,96092.09
2019-04-20T01:37:54.623Z,96091.28
2019-04-20T01:40:08.279Z,96093.91
2019-04-20T01:42:38.625Z,96095.70
2019-04-20T01:45:16.807Z,96091.27
2019-04-20T01:47:46.203Z,96091.06
2019-04-20T01:50:18.252Z,96092.73
2019-04-20T01:52:53.928Z,96086.67
2019-04-20T01:55:39.080Z,96085.84
2019-04-20T01:58:25.531Z,96091.13
2019-04-20T02:00:57.593Z,96090.28
2019-04-20T02:03:43.887Z,96093.25
2019-04-20T02:06:16.145Z,96096.11
2019-04-20T02:08:42.190Z,96091.77
2019-04-20T02:11:18.638Z,96095.71
2019-04-20T02:13:49.924Z,96093.09
2019-04-20T02:16:24.405Z,96097.97
2019-04-20T02:19:05.325Z,96102.03
2019-04-20T02:21:34.283Z,96105.25
2019-04-20T02:23:57.314Z,96103.13
2019-04-20T02:26:23.982Z,96095.33
2019-04-20T02:29:17.532Z,96099.39
2019-04-20T02:32:12.159Z,96099.66
2019-04-20T02:40:35.932Z,96099.73
2019-04-20T02:43:03.647Z,96106.20
2019-04-20T02:45:53.362Z,96105.05
2019-04-20T02:48:07.715Z,96107.05
2019-04-20T02:50:28.674Z,96108.45
2019-04-20T02:53:05.231Z,96106.81
2019-04-20T02:55:38.201Z,96097.41
2019-04-20T02:58:00.545Z,96110.01
2019-04-20T03:00:29.863Z,96104.31
2019-04-20T03:02:49.812Z,96102.03
2019-04-20T03:05:25.633Z,96101.30
2019-04-20T03:08:04.323Z,96098.09
2019-04-20T03:10:43.396Z,96106.27
2019-04-20T03:13:09.441Z,96106.78
2019-04-20T03:15:38.227Z,96103.70
2019-04-20T03:18:10.210Z,96098.05
2019-04-20T03:20:43.506Z,96098.05
2019-04-20T03:23:26.534Z,96109.03
2019-04-20T03:25:55.940Z,96110.37
2019-04-20T03:28:23.615Z,96102.97
2019-04-20T03:31:36.795Z,96106.28
2019-04-20T03:33:55.337Z,96104.81
2019-04-20T03:36:12.139Z,96104.21
2019-04-20T03:38:38.444Z,96107.38
2019-04-20T03:40:59.236Z,96103.55
2019-04-20T03:43:18.551Z,96107.23
2019-04-20T03:45:56.039Z,96104.67
2019-04-20T03:48:38.187Z,96102.66
2019-04-20T03:51:14.898Z,96111.32
2019-04-20T03:53:55.027Z,96109.75
2019-04-20T03:56:39.014Z,96113.56
2019-04-20T03:59:18.576Z,96117.83
2019-04-20T04:02:24.609Z,96116.12
2019-04-20T04:04:54.808Z,96120.81
2019-04-20T04:07:17.966Z,96119.80
2019-04-20T04:09:56.171Z,96121.07
2019-04-20T04:12:49.711Z,96117.34
2019-04-20T04:15:19.071Z,96125.56
2019-04-20T04:17:50.340Z,96122.76
2019-04-20T04:20:21.427Z,96121.98
2019-04-20T04:23:11.600Z,96128.85
2019-04-20T04:25:35.552Z,96128.15
2019-04-20T04:28:10.579Z,96129.73
2019-04-20T04:30:40.570Z,96127.22
2019-04-20T04:33:41.525Z,96126.70
2019-04-20T04:35:48.291Z,96128.74
2019-04-20T04:38:30.111Z,96132.27
2019-04-20T04:41:04.950Z,96131.73
2019-04-20T04:43:30.370Z,96128.83
2019-04-20T04:45:38.712Z,96137.13
2019-04-20T04:48:14.704Z,96141.14
2019-04-20T04:50:49.636Z,96144.22
2019-04-20T04:53:24.744Z,96142.93
2019-04-20T04:55:52.293Z,96138.79
2019-04-20T04:58:15.257Z,96141.17
2019-04-20T05:00:46.616Z,96150.11
2019-04-20T05:03:35.369Z,96151.21
2019-04-20T05:06:25.326Z,96150.79
2019-04-20T05:08:45.340Z,96150.14
2019-04-20T05:11:13.140Z,96152.70
2019-04-20T05:13:50.814Z,96149.97
2019-04-20T05:16:36.016Z,96150.41
2019-04-20T05:19:11.883Z,96145.81
2019-04-20T05:22:04.057Z,96152.86
2019-04-20T05:25:07.027Z,96154.40
2019-04-20T05:27:45.375Z,96152.00
2019-04-20T05:29:59.621Z,96147.67
2019-04-20T05:32:41.288Z,96142.43
2019-04-20T05:35:21.527Z,96146.53
2019-04-20T05:38:05.121Z,96137.36
2019-04-20T05:40:29.308Z,96144.73
2019-04-20T05:43:26.400Z,96146.03
2019-04-20T05:45:47.790Z,96137.30
2019-04-20T05:48:23.587Z,96143.16
2019-04-20T05:51:00.017Z,96143.55
2019-04-20T05:53:32.632Z,96145.86
2019-04-20T05:55:59.649Z,96141.22
2019-04-20T05:58:32.958Z,96146.52
2019-04-20T06:01:08.961Z,96147.78
2019-04-20T06:03:38.378Z,96141.41
2019-04-20T06:06:08.235Z,96149.14
2019-04-20T06:08:51.102Z,96146.87
2019-04-20T06:11:19.237Z,96142.67
2019-04-20T06:13:56.884Z,96150.15
2019-04-20T06:16:45.430Z,96147.66
2019-04-20T06:19:21.896Z,96154.00
2019-04-20T06:22:14.923Z,96150.36
2019-04-20T06:24:35.389Z,96153.51
2019-04-20T06:27:04.776Z,96155.46
2019-04-20T06:29:26.357Z,96155.16
2019-04-20T06:32:05.150Z,96160.55
2019-04-20T06:37:02.846Z,96164.08
2019-04-20T06:39:44.946Z,96160.16
2019-04-20T06:45:02.101Z,96163.73
2019-04-20T06:47:19.929Z,96163.84
2019-04-20T06:49:38.437Z,96169.41
2019-04-20T06:52:32.092Z,96173.80
2019-04-20T06:55:05.481Z,96166.06
2019-04-20T06:57:45.357Z,96170.45
2019-04-20T07:00:15.460Z,96165.30
2019-04-20T07:02:52.974Z,96165.08
2019-04-20T07:05:21.242Z,96165.75
2019-04-20T07:07:54.780Z,96155.09
2019-04-20T07:10:28.595Z,96164.09
2019-04-20T07:12:49.514Z,96170.83
2019-04-20T07:15:22.706Z,96164.16
2019-04-20T07:18:01.804Z,96161.11
2019-04-20T07:20:55.600Z,96164.45
2019-04-20T07:23:26.600Z,96161.41
2019-04-20T07:25:58.585Z,96163.18
2019-04-20T07:28:31.299Z,96159.69
2019-04-20T07:30:56.951Z,96153.11
2019-04-20T07:33:33.447Z,96159.69
2019-04-20T07:36:06.079Z,96150.94
2019-04-20T07:41:00.021Z,96165.98
2019-04-20T07:43:51.176Z,96168.45
2019-04-20T07:46:21.913Z,96168.16
2019-04-20T07:48:42.949Z,96172.00
2019-04-20T07:51:05.861Z,96167.95
2019-04-20T07:53:36.184Z,96168.09
2019-04-20T07:56:17.821Z,96170.17
2019-04-20T07:58:36.703Z,96158.09
2019-04-20T08:01:30.214Z,96157.09
2019-04-20T08:04:11.498Z,96159.14
2019-04-20T08:06:46.906Z,96164.19
2019-04-20T08:09:24.391Z,96155.45
2019-04-20T08:12:11.811Z,96157.03
2019-04-20T08:14:39.659Z,96160.72
2019-04-20T08:17:29.041Z,96160.79
2019-04-20T08:19:41.174Z,96163.62
2019-04-20T08:22:15.575Z,96162.94
2019-04-20T08:24:42.852Z,96160.41
2019-04-20T08:27:05.947Z,96163.55
2019-04-20T08:29:48.451Z,96168.73
2019-04-20T08:32:34.661Z,96160.56
2019-04-20T08:35:15.474Z,96163.88
2019-04-20T08:37:41.360Z,96161.03
2019-04-20T08:40:13.244Z,96160.98
2019-04-20T08:43:00.555Z,96158.63
2019-04-20T08:45:18.061Z,96160.13
2019-04-20T08:47:54.912Z,96161.52
2019-04-20T08:53:12.818Z,96169.36
2019-04-20T08:55:23.593Z,96164.69
2019-04-20T08:57:35.944Z,96159.98
2019-04-20T09:00:09.027Z,96155.94
2019-04-20T09:02:41.229Z,96153.21
2019-04-20T09:05:24.855Z,96164.84
2019-04-20T09:07:55.325Z,96159.75
2019-04-20T09:10:38.969Z,96162.30
2019-04-20T09:13:02.347Z,96157.27
2019-04-20T09:15:21.599Z,96154.50
2019-04-20T09:18:01.943Z,96144.81
2019-04-20T09:20:42.376Z,96150.23
2019-04-20T09:23:21.303Z,96151.72
2019-04-20T09:28:37.127Z,96144.13
2019-04-20T09:31:22.645Z,96152.13
2019-04-20T09:34:07.553Z,96141.44
2019-04-20T09:36:44.663Z,96135.50
2019-04-20T09:39:29.525Z,96136.03
2019-04-20T09:42:22.754Z,96134.17
2019-04-20T09:44:55.908Z,96126.74
2019-04-20T09:47:32.614Z,96120.78
2019-04-20T09:50:10.873Z,96125.77
2019-04-20T09:52:48.016Z,96119.42
2019-04-20T09:55:14.683Z,96120.97
2019-04-20T09:57:50.245Z,96116.13
2019-04-20T10:00:19.311Z,96119.43
2019-04-20T10:02:39.064Z,96116.39
2019-04-20T10:05:09.334Z,96117.93
2019-04-20T10:07:42.230Z,96114.62
2019-04-20T10:10:23.906Z,96117.97
2019-04-20T10:12:44.260Z,96108.47
2019-04-20T10:15:19.494Z,96106.34
2019-04-20T10:17:45.867Z,96105.91
2019-04-20T10:20:26.997Z,96094.70
2019-04-20T10:22:48.772Z,96103.30
2019-04-20T10:25:18.740Z,96096.03
2019-04-20T10:27:49.539Z,96100.84
2019-04-20T10:30:20.736Z,96101.16
2019-04-20T10:32:53.837Z,96100.84
2019-04-20T10:35:23.341Z,96097.23
2019-04-20T10:37:59.698Z,96087.27
2019-04-20T10:40:44.973Z,96099.54
2019-04-20T10:43:03.169Z,96093.89
2019-04-20T10:45:33.175Z,96097.89
2019-04-20T10:48:03.428Z,96091.13
2019-04-20T10:50:34.517Z,96093.33
2019-04-20T10:53:05.769Z,96090.26
2019-04-20T10:55:35.810Z,96088.24
2019-04-20T10:58:07.206Z,96087.62
2019-04-20T11:00:44.269Z,96092.45
2019-04-20T11:03:17.823Z,96086.70
2019-04-20T11:05:49.131Z,96080.91
2019-04-20T11:08:20.346Z,96082.17
2019-04-20T11:11:02.379Z,96085.79
2019-04-20T11:13:23.441Z,96078.91
2019-04-20T11:15:54.681Z,96083.27
2019-04-20T11:18:25.090Z,96078.21
2019-04-20T11:20:55.396Z,96076.31
2019-04-20T11:23:26.606Z,96074.47
2019-04-20T11:25:58.073Z,96067.03
2019-04-20T11:28:28.211Z,96064.52
2019-04-20T11:30:58.543Z,96059.43
2019-04-20T11:33:29.939Z,96066.67
2019-04-20T11:36:01.129Z,96061.83
2019-04-20T11:38:31.191Z,96060.22
2019-04-20T11:41:10.347Z,96060.48
2019-04-20T11:43:33.635Z,96052.51
2019-04-20T11:46:04.801Z,96052.86
2019-04-20T11:48:34.961Z,96058.38
2019-04-20T11:51:05.536Z,96053.05
2019-04-20T11:53:36.307Z,96051.20
2019-04-20T11:56:13.517Z,96052.91
2019-04-20T11:58:38.823Z,96049.84
2019-04-20T12:01:29.001Z,96041.63
2019-04-20T12:04:04.132Z,96042.94
2019-04-20T12:06:28.900Z,96037.64
2019-04-20T12:08:59.307Z,96039.09
2019-04-20T12:11:38.408Z,96040.58
2019-04-20T12:14:00.897Z,96045.91
2019-04-20T12:16:31.968Z,96042.44
2019-04-20T12:19:02.280Z,96045.39
2019-04-20T12:21:32.745Z,96036.66
2019-04-20T12:24:04.419Z,96027.95
2019-04-20T12:26:34.362Z,96028.86
2019-04-20T12:29:05.582Z,96029.11
2019-04-20T12:31:35.739Z,96029.37
2019-04-20T12:34:06.381Z,96025.20
2019-04-20T12:36:37.351Z,96024.10
2019-04-20T12:39:11.026Z,96018.33
2019-04-20T12:41:48.043Z,96022.80
2019-04-20T12:44:14.085Z,96021.92
2019-04-20T12:46:45.758Z,96017.80
2019-04-20T12:49:15.908Z,96020.45
2019-04-20T12:51:53.738Z,96018.36
2019-04-20T12:54:18.564Z,96023.73
2019-04-20T12:56:48.805Z,96016.28
2019-04-20T12:59:21.133Z,96013.90
2019-04-20T13:01:51.427Z,96013.38
2019-04-20T13:04:22.699Z,96011.54
2019-04-20T13:06:55.215Z,96003.61
2019-04-20T13:09:28.692Z,96009.95
2019-04-20T13:12:15.512Z,96012.53
2019-04-20T13:15:24.585Z,95999.41
2019-04-20T13:17:54.612Z,95995.21
2019-04-20T13:20:25.796Z,95991.32
2019-04-20T13:22:57.090Z,95998.09
2019-04-20T13:25:28.522Z,95999.25
2019-04-20T13:27:58.993Z,95994.89
2019-04-20T13:30:30.067Z,95981.05
2019-04-20T13:33:01.456Z,95988.84
2019-04-20T13:35:32.204Z,95977.70
2019-04-20T13:38:04.564Z,95978.89
2019-04-20T13:40:35.663Z,95977.88
2019-04-20T13:43:05.932Z,95976.64
2019-04-20T13:45:37.154Z,95971.70
2019-04-20T13:48:07.251Z,95974.62
2019-04-20T13:50:38.174Z,95965.19
2019-04-20T13:53:09.631Z,95969.56
2019-04-20T13:55:40.559Z,95963.23
2019-04-20T13:58:33.871Z,95960.32
2019-04-20T14:01:14.416Z,95953.36
2019-04-20T14:03:44.989Z,95957.95
2019-04-20T14:06:16.341Z,95951.38
2019-04-20T14:08:47.384Z,95947.50
2019-04-20T14:11:17.705Z,95946.17
2019-04-20T14:13:54.744Z,95944.38
2019-04-20T14:16:19.396Z,95946.48
2019-04-20T14:18:49.471Z,95935.67
2019-04-20T14:21:20.403Z,95943.34
2019-04-20T14:23:50.836Z,95938.88
2019-04-20T14:26:21.050Z,95934.03
2019-04-20T14:28:51.279Z,95935.16
2019-04-20T14:31:21.618Z,95932.76
2019-04-20T14:33:52.791Z,95918.58
2019-04-20T14:36:24.205Z,95917.80
2019-04-20T14:38:54.414Z,95922.56
2019-04-20T14:41:24.422Z,95925.59
2019-04-20T14:43:55.484Z,95925.64
2019-04-20T14:46:26.676Z,95918.50
2019-04-20T14:48:57.072Z,95916.97
2019-04-20T14:51:27.859Z,95911.22
2019-04-20T14:53:59.150Z,95919.78
2019-04-20T14:56:29.397Z,95908.75
2019-04-20T14:59:02.613Z,95910.23
2019-04-20T15:01:44.907Z,95911.08
2019-04-20T15:04:18.552Z,95902.63
2019-04-20T15:06:46.709Z,95906.23
2019-04-20T15:09:16.927Z,95888.79
2019-04-20T15:11:48.233Z,95894.42
2019-04-20T15:14:38.654Z,95894.16
2019-04-20T15:17:11.341Z,95890.95
2019-04-20T15:19:57.245Z,95892.53
2019-04-20T15:22:45.971Z,95890.39
2019-04-20T15:25:16.104Z,95887.49
2019-04-20T15:27:46.404Z,95888.36
2019-04-20T15:30:18.342Z,95888.86
2019-04-20T15:32:49.269Z,95876.80
2019-04-20T15:35:21.110Z,95881.19
2019-04-20T15:37:51.109Z,95875.86
2019-04-20T15:40:21.296Z,95869.73
2019-04-20T15:42:58.967Z,95874.52
2019-04-20T15:45:23.318Z,95889.48
2019-04-20T15:47:54.189Z,95887.44
2019-04-20T15:50:25.689Z,95883.27
2019-04-20T15:52:57.374Z,95882.46
2019-04-20T15:55:33.943Z,95876.16
2019-04-20T16:00:28.720Z,95871.18
2019-04-20T16:03:21.419Z,95874.85
2019-04-20T16:05:57.280Z,95867.28
2019-04-20T16:08:30.253Z,95862.79
2019-04-20T16:11:01.410Z,95861.61
2019-04-20T16:13:37.600Z,95856.67
2019-04-20T16:16:03.769Z,95863.94
2019-04-20T16:18:35.074Z,95858.72
2019-04-20T16:21:10.032Z,95859.55
2019-04-20T16:24:08.926Z,95854.60
2019-04-20T16:26:53.582Z,95852.02
2019-04-20T16:29:23.959Z,95852.30
2019-04-20T16:31:54.361Z,95848.36
2019-04-20T16:34:25.377Z,95844.69
2019-04-20T16:36:56.924Z,95841.27
2019-04-20T16:39:28.286Z,95835.48
2019-04-20T16:41:58.422Z,95840.17
2019-04-20T16:44:29.324Z,95832.55
2019-04-20T16:47:00.507Z,95832.13
2019-04-20T16:49:30.702Z,95828.96
2019-04-20T16:52:00.883Z,95826.63
2019-04-20T16:54:32.021Z,95830.58
2019-04-20T16:57:02.583Z,95828.48
2019-04-20T16:59:40.174Z,95836.02
2019-04-20T17:02:06.557Z,95824.53
2019-04-20T17:04:37.715Z,95827.64
2019-04-20T17:07:31.038Z,95824.55
2019-04-20T17:10:02.300Z,95823.23
2019-04-20T17:12:33.607Z,95823.23
2019-04-20T17:15:05.861Z,95822.17
2019-04-20T17:17:35.989Z,95827.64
2019-04-20T17:20:07.452Z,95830.49
2019-04-20T17:22:37.404Z,95823.13
2019-04-20T17:25:10.147Z,95822.08
2019-04-20T17:27:51.277Z,95820.03
2019-04-20T17:30:47.225Z,95824.53
2019-04-20T17:33:20.845Z,95825.50
2019-04-20T17:35:57.274Z,95820.73
2019-04-20T17:38:20.841Z,95821.44
2019-04-20T17:41:02.889Z,95825.66
2019-04-20T17:43:31.413Z,95823.69
2019-04-20T17:46:02.780Z,95819.91
2019-04-20T17:48:36.102Z,95817.64
2019-04-20T17:51:16.810Z,95825.48
2019-04-20T17:53:57.687Z,95825.79
2019-04-20T17:56:24.610Z,95832.98
2019-04-20T17:58:54.633Z,95833.38
2019-04-20T18:02:02.194Z,95833.77
2019-04-20T18:04:57.379Z,95831.58
2019-04-20T18:07:09.754Z,95829.27
2019-04-20T18:09:49.967Z,95836.36
2019-04-20T18:12:03.359Z,95834.61
2019-04-20T18:14:45.962Z,95834.52
2019-04-20T18:17:29.356Z,95838.67
2019-04-20T18:19:54.796Z,95836.29
2019-04-20T18:22:25.757Z,95835.97
2019-04-20T18:25:17.437Z,95830.59
2019-04-20T18:27:43.962Z,95839.35
2019-04-20T18:30:15.510Z,95835.11
2019-04-20T18:32:35.721Z,95837.39
2019-04-20T18:35:16.341Z,95836.66
2019-04-20T18:37:52.516Z,95839.17
2019-04-20T18:40:29.176Z,95840.10
2019-04-20T18:42:56.636Z,95839.06
2019-04-20T18:45:38.134Z,95832.41
2019-04-20T18:48:11.774Z,95838.27
2019-04-20T18:50:33.731Z,95838.38
2019-04-20T18:52:57.947Z,95842.38
2019-04-20T18:55:39.012Z,95840.67
2019-04-20T18:57:59.704Z,95837.45
2019-04-20T19:00:33.899Z,95837.30
2019-04-20T19:03:11.136Z,95842.92
2019-04-20T19:05:33.799Z,95843.69
2019-04-20T19:08:09.367Z,95844.77
2019-04-20T19:10:38.583Z,95850.27
2019-04-20T19:13:22.426Z,95847.78
2019-04-20T19:16:16.574Z,95845.41
2019-04-20T19:18:54.674Z,95848.18
2019-04-20T19:21:13.329Z,95852.63
2019-04-20T19:23:53.522Z,95851.58
2019-04-20T19:26:20.578Z,95849.77
2019-04-20T19:28:52.497Z,95855.17
2019-04-20T19:31:36.753Z,95856.81
2019-04-20T19:34:16.764Z,95859.55
2019-04-20T19:36:33.083Z,95856.91
2019-04-20T19:39:10.599Z,95860.48
2019-04-20T19:41:39.014Z,95863.58
2019-04-20T19:44:10.006Z,95864.08
2019-04-20T19:46:48.277Z,95862.68
2019-04-20T19:49:11.269Z,95865.67
2019-04-20T19:52:00.692Z,95858.28
2019-04-20T19:54:24.094Z,95864.12
2019-04-20T19:56:48.545Z,95856.41
2019-04-20T19:59:19.501Z,95861.73
2019-04-20T20:01:39.896Z,95858.74
2019-04-20T20:04:11.551Z,95860.66
2019-04-20T20:06:47.720Z,95862.81
2019-04-20T20:09:16.107Z,95864.14
2019-04-20T20:11:46.783Z,95859.81
2019-04-20T20:14:17.945Z,95865.39
2019-04-20T20:17:06.698Z,95864.06
2019-04-20T20:19:38.535Z,95861.18
2019-04-20T20:22:05.602Z,95851.38
2019-04-20T20:24:23.348Z,95857.60
2019-04-20T20:27:00.444Z,95850.08
2019-04-20T20:29:34.041Z,95856.55
2019-04-20T20:32:11.711Z,95855.13
2019-04-20T20:34:36.382Z,95855.80
2019-04-20T20:37:08.763Z,95863.97
2019-04-20T20:39:35.128Z,95859.63
2019-04-20T20:42:15.223Z,95860.00
2019-04-20T20:44:45.587Z,95859.61
2019-04-20T20:47:34.137Z,95856.84
2019-04-20T20:50:08.239Z,95859.22
2019-04-20T20:52:29.003Z,95860.69
2019-04-20T20:54:56.440Z,95867.54
2019-04-20T20:57:20.665Z,95856.31
2019-04-20T20:59:55.515Z,95863.02
2019-04-20T21:02:24.386Z,95859.52
2019-04-20T21:04:51.443Z,95860.95
2019-04-20T21:07:22.596Z,95862.64
2019-04-20T21:09:52.527Z,95863.52
2019-04-20T21:12:24.011Z,95866.38
2019-04-20T21:14:55.205Z,95858.44
2019-04-20T21:17:31.160Z,95868.38
2019-04-20T21:20:12.629Z,95858.53
2019-04-20T21:22:49.195Z,95862.18
2019-04-20T21:25:01.101Z,95865.88
2019-04-20T21:27:32.933Z,95858.54
2019-04-20T21:30:03.959Z,95861.11
2019-04-20T21:32:43.975Z,95860.05
2019-04-20T21:35:11.029Z,95859.52
2019-04-20T21:37:43.417Z,95863.80
2019-04-20T21:40:23.530Z,95861.75
2019-04-20T21:42:51.710Z,95849.63
2019-04-20T21:45:23.026Z,95858.09
2019-04-20T21:47:48.184Z,95857.39
2019-04-20T21:50:34.447Z,95847.77
2019-04-20T21:52:54.018Z,95847.27
2019-04-20T21:55:21.908Z,95847.08
2019-04-20T21:57:55.453Z,95846.68
2019-04-20T22:00:46.031Z,95846.46
2019-04-20T22:03:17.265Z,95844.67
2019-04-20T22:05:48.476Z,95843.40
2019-04-20T22:08:19.718Z,95844.09
2019-04-20T22:10:50.269Z,95840.61
2019-04-20T22:13:26.764Z,95840.61
2019-04-20T22:15:58.526Z,95848.84
2019-04-20T22:18:25.378Z,95837.42
2019-04-20T22:21:05.910Z,95838.91
2019-04-20T22:23:46.618Z,95835.66
2019-04-20T22:26:14.565Z,95836.92
2019-04-20T22:28:31.939Z,95824.70
2019-04-20T22:31:02.265Z,95825.89
2019-04-20T22:33:38.079Z,95822.97
2019-04-20T22:36:09.449Z,95821.48
2019-04-20T22:39:07.491Z,95822.05
2019-04-20T22:41:46.688Z,95823.87
2019-04-20T22:44:19.370Z,95822.73
2019-04-20T22:46:47.684Z,95821.48
2019-04-20T22:49:36.314Z,95819.09
2019-04-20T22:51:58.123Z,95812.50
2019-04-20T22:54:38.043Z,95809.13
2019-04-20T22:57:03.417Z,95806.97
2019-04-20T22:59:37.438Z,95804.84
2019-04-20T23:01:59.898Z,95802.48
2019-04-20T23:04:29.015Z,95788.44
2019-04-20T23:06:59.212Z,95796.64
2019-04-20T23:09:32.835Z,95789.72
2019-04-20T23:12:09.172Z,95792.92
2019-04-20T23:14:32.378Z,95794.56
2019-04-20T23:17:02.341Z,95791.44
2019-04-20T23:19:42.878Z,95787.91
2019-04-20T23:22:08.453Z,95784.17
2019-04-20T23:24:35.504Z,95783.44
2019-04-20T23:27:16.374Z,95775.80
2019-04-20T23:29:40.064Z,95781.78
2019-04-20T23:32:11.896Z,95779.16
2019-04-20T23:34:40.950Z,95769.99
2019-04-20T23:37:17.058Z,95778.66
2019-04-20T23:39:44.979Z,95772.00
2019-04-20T23:42:19.720Z,95774.38
2019-04-20T23:45:01.704Z,95770.90
2019-04-20T23:47:47.876Z,95763.87
2019-04-20T23:50:35.758Z,95761.61
2019-04-20T23:53:06.707Z,95766.50
2019-04-20T23:55:19.004Z,95770.54
2019-04-20T23:57:55.878Z,95768.09
